Time;durP1;ratioP1;P1;durP2;ratioP2;P2;SDS_P1;SDS_P2;PMS_P1;PMS_P2;Temp;Humidity;BMP_temperature;BMP_pressure;BME280_temperature;BME280_humidity;BME280_pressure;Samples;Min_cycle;Max_cycle;Signal;HPM_P1;HPM_P2
2021/07/07 00:00:26;;;;;;;2.10;1.87;;;16.00;99.90;;;;;;5041559;28;20535;-67
2021/07/07 00:02:52;;;;;;;1.83;1.73;;;16.00;99.90;;;;;;5033507;28;20219;-67
2021/07/07 00:05:20;;;;;;;2.50;1.93;;;16.00;99.90;;;;;;5033103;28;20174;-66
2021/07/07 00:07:46;;;;;;;2.27;2.07;;;15.90;99.90;;;;;;5041560;28;20508;-68
2021/07/07 00:10:15;;;;;;;1.67;1.57;;;15.90;99.90;;;;;;5052535;28;20846;-69
2021/07/07 00:12:41;;;;;;;2.70;1.90;;;16.00;99.90;;;;;;5053778;28;20435;-66
2021/07/07 00:15:16;;;;;;;2.77;2.13;;;16.10;99.90;;;;;;5053148;28;20439;-66
2021/07/07 00:17:42;;;;;;;1.90;1.80;;;16.00;99.90;;;;;;5052947;28;20499;-67
2021/07/07 00:20:10;;;;;;;3.90;2.07;;;16.00;99.90;;;;;;5053196;28;20466;-67
2021/07/07 00:22:36;;;;;;;1.80;1.70;;;16.10;99.90;;;;;;5043429;28;20174;-67
2021/07/07 00:25:04;;;;;;;2.40;2.20;;;16.10;99.90;;;;;;5040048;28;20423;-67
2021/07/07 00:27:31;;;;;;;1.63;1.53;;;16.10;99.90;;;;;;5053555;28;20438;-68
2021/07/07 00:29:58;;;;;;;1.87;1.77;;;16.10;99.90;;;;;;5053179;28;21008;-68
2021/07/07 00:32:23;;;;;;;2.40;2.10;;;16.10;99.90;;;;;;5053170;28;20441;-68
2021/07/07 00:34:49;;;;;;;3.27;1.53;;;16.10;99.90;;;;;;5053384;28;20408;-68
2021/07/07 00:37:15;;;;;;;3.60;1.93;;;16.10;99.90;;;;;;5051939;28;20184;-68
2021/07/07 00:39:40;;;;;;;2.27;2.07;;;16.20;99.90;;;;;;5053085;28;20197;-67
2021/07/07 00:42:07;;;;;;;2.17;2.07;;;16.20;99.90;;;;;;5052945;28;20623;-68
2021/07/07 00:44:33;;;;;;;3.77;1.83;;;16.20;99.90;;;;;;5052936;28;20212;-67
2021/07/07 00:46:59;;;;;;;1.30;1.20;;;16.10;99.90;;;;;;5052906;28;20426;-67
2021/07/07 00:49:25;;;;;;;1.43;1.33;;;16.10;99.90;;;;;;5052204;28;20423;-67
2021/07/07 00:51:51;;;;;;;1.73;1.63;;;16.10;99.90;;;;;;5037674;28;20179;-68
2021/07/07 00:54:17;;;;;;;2.53;2.03;;;16.10;99.90;;;;;;5050303;28;20917;-68
2021/07/07 00:56:43;;;;;;;1.50;1.40;;;16.10;99.90;;;;;;5052579;28;20197;-68
2021/07/07 00:59:09;;;;;;;4.37;1.73;;;16.20;99.90;;;;;;5052304;28;20423;-67
2021/07/07 01:01:36;;;;;;;2.20;1.70;;;16.20;99.90;;;;;;5052839;28;20439;-68
2021/07/07 01:04:03;;;;;;;1.97;1.87;;;16.20;99.90;;;;;;5052637;28;20454;-67
2021/07/07 01:06:29;;;;;;;2.90;2.70;;;16.20;99.90;;;;;;5049419;28;20426;-65
2021/07/07 01:08:54;;;;;;;2.80;2.10;;;16.20;99.90;;;;;;5050842;28;21029;-68
2021/07/07 01:11:20;;;;;;;2.67;2.47;;;16.30;99.90;;;;;;5052610;28;20176;-68
2021/07/07 01:13:46;;;;;;;3.83;2.73;;;16.30;99.90;;;;;;5054975;28;20166;-67
2021/07/07 01:16:12;;;;;;;8.53;2.80;;;16.40;99.90;;;;;;5056365;28;20181;-67
2021/07/07 01:18:37;;;;;;;4.90;2.23;;;16.40;99.90;;;;;;5055794;28;20549;-68
2021/07/07 01:21:03;;;;;;;3.60;2.70;;;16.40;99.90;;;;;;5038358;28;20644;-67
2021/07/07 01:23:29;;;;;;;2.40;2.20;;;16.30;99.90;;;;;;5036140;28;20209;-66
2021/07/07 01:25:55;;;;;;;2.47;2.10;;;16.30;99.90;;;;;;5036320;28;20751;-67
2021/07/07 01:28:21;;;;;;;2.67;2.10;;;16.30;99.90;;;;;;5035897;28;20420;-67
2021/07/07 01:30:47;;;;;;;2.00;1.83;;;16.30;99.90;;;;;;5036044;28;20514;-66
2021/07/07 01:33:13;;;;;;;2.70;2.50;;;16.20;99.90;;;;;;5039433;28;20729;-66
2021/07/07 01:35:39;;;;;;;2.40;2.20;;;16.20;99.90;;;;;;5056007;28;20447;-66
2021/07/07 01:38:04;;;;;;;2.27;2.07;;;16.20;99.90;;;;;;5055539;28;20178;-66
2021/07/07 01:40:31;;;;;;;2.10;1.97;;;16.20;99.90;;;;;;5055699;28;20202;-66
2021/07/07 01:42:57;;;;;;;2.33;2.13;;;16.20;99.90;;;;;;5054103;28;20208;-66
2021/07/07 01:45:24;;;;;;;3.80;2.60;;;16.20;99.90;;;;;;5055822;28;20411;-67
2021/07/07 01:47:52;;;;;;;3.80;2.30;;;16.10;99.90;;;;;;5053233;28;20428;-66
2021/07/07 01:50:18;;;;;;;5.00;2.27;;;16.10;99.90;;;;;;5055593;28;21048;-66
2021/07/07 01:52:43;;;;;;;2.13;1.70;;;16.10;99.90;;;;;;5055597;28;20434;-66
2021/07/07 01:55:11;;;;;;;2.30;2.10;;;16.00;99.90;;;;;;5055502;28;20455;-66
2021/07/07 01:57:44;;;;;;;2.77;2.17;;;16.00;99.90;;;;;;5053694;28;20272;-65
2021/07/07 02:00:39;;;;;;;1.90;1.80;;;16.00;99.90;;;;;;5036006;28;20868;-65
2021/07/07 02:03:05;;;;;;;1.60;1.50;;;15.90;99.90;;;;;;5035305;28;20466;-65
2021/07/07 02:05:35;;;;;;;2.53;2.33;;;15.90;99.90;;;;;;5034260;28;20419;-65
2021/07/07 02:08:03;;;;;;;3.70;1.97;;;15.90;99.90;;;;;;5034158;28;20613;-67
2021/07/07 02:10:29;;;;;;;1.80;1.70;;;16.00;99.90;;;;;;5049784;28;20444;-66
2021/07/07 02:12:55;;;;;;;4.63;2.23;;;16.00;99.90;;;;;;5055347;28;20913;-66
2021/07/07 02:15:23;;;;;;;2.43;2.23;;;16.00;99.90;;;;;;5055312;28;20543;-66
2021/07/07 02:17:52;;;;;;;3.60;2.60;;;16.10;99.90;;;;;;5054736;28;20406;-66
2021/07/07 02:20:19;;;;;;;2.60;2.40;;;16.10;99.90;;;;;;5055002;28;20428;-66
2021/07/07 02:22:46;;;;;;;3.17;2.87;;;16.20;99.90;;;;;;5053576;28;20440;-65
2021/07/07 02:25:20;;;;;;;3.70;3.37;;;16.20;99.90;;;;;;5054920;28;20427;-66
2021/07/07 02:27:46;;;;;;;2.60;2.40;;;16.20;99.90;;;;;;5054474;28;20505;-66
2021/07/07 02:30:15;;;;;;;3.60;2.57;;;16.20;99.90;;;;;;5053627;28;20820;-66
2021/07/07 02:32:41;;;;;;;3.10;2.80;;;16.20;99.90;;;;;;5055022;28;20818;-65
2021/07/07 02:35:09;;;;;;;2.63;2.43;;;16.20;99.90;;;;;;5054684;28;20408;-66
2021/07/07 02:37:35;;;;;;;4.60;2.20;;;16.20;99.90;;;;;;5051846;28;20442;-66
2021/07/07 02:40:03;;;;;;;3.07;2.70;;;16.10;99.90;;;;;;5034860;28;20436;-66
2021/07/07 02:42:28;;;;;;;2.00;1.90;;;16.10;99.90;;;;;;5034787;28;20621;-65
2021/07/07 02:44:54;;;;;;;4.10;2.40;;;16.10;99.90;;;;;;5033381;28;20544;-66
2021/07/07 02:47:19;;;;;;;2.80;2.60;;;16.00;99.90;;;;;;5034181;28;20629;-65
2021/07/07 02:49:45;;;;;;;2.63;2.43;;;16.00;99.90;;;;;;5034557;28;20193;-65
2021/07/07 02:52:11;;;;;;;2.20;2.00;;;16.00;99.90;;;;;;5040572;28;20176;-64
2021/07/07 02:54:36;;;;;;;2.20;1.93;;;16.00;99.90;;;;;;5054527;28;20188;-66
2021/07/07 02:57:02;;;;;;;3.57;2.70;;;16.10;99.90;;;;;;5042780;28;20272;-66
2021/07/07 02:59:28;;;;;;;3.33;2.27;;;16.20;99.90;;;;;;5034095;28;20616;-65
2021/07/07 03:01:53;;;;;;;4.20;3.90;;;16.20;99.90;;;;;;5049780;28;20211;-66
2021/07/07 03:04:19;;;;;;;4.60;2.57;;;16.20;99.90;;;;;;5054111;28;20205;-65
2021/07/07 03:06:45;;;;;;;3.33;2.60;;;16.20;99.90;;;;;;5054309;28;20180;-66
2021/07/07 03:09:10;;;;;;;3.00;2.43;;;16.10;99.90;;;;;;5053733;28;20193;-66
2021/07/07 03:11:37;;;;;;;5.77;2.27;;;16.20;99.90;;;;;;5037736;28;20186;-66
2021/07/07 03:14:04;;;;;;;3.97;3.40;;;16.10;99.90;;;;;;5033978;28;20182;-67
2021/07/07 03:16:30;;;;;;;2.33;2.13;;;16.20;99.90;;;;;;5034084;28;20417;-66
2021/07/07 03:18:55;;;;;;;1.73;1.63;;;16.20;99.90;;;;;;5033637;28;20923;-67
2021/07/07 03:21:21;;;;;;;2.90;2.70;;;16.20;99.90;;;;;;5034031;28;20594;-66
2021/07/07 03:23:47;;;;;;;2.53;2.37;;;16.20;99.90;;;;;;5034029;28;20206;-67
2021/07/07 03:26:13;;;;;;;2.83;2.57;;;16.20;99.90;;;;;;5043677;28;20568;-67
2021/07/07 03:28:39;;;;;;;3.00;2.60;;;16.20;99.90;;;;;;5033416;28;20412;-67
2021/07/07 03:31:05;;;;;;;3.13;2.87;;;16.30;99.90;;;;;;5033879;28;20408;-67
2021/07/07 03:33:31;;;;;;;3.60;3.00;;;16.30;99.90;;;;;;5033851;28;20260;-67
2021/07/07 03:35:59;;;;;;;3.43;3.13;;;16.30;99.90;;;;;;5033145;28;20467;-67
2021/07/07 03:38:25;;;;;;;5.63;4.03;;;16.30;99.90;;;;;;5033207;28;20212;-67
2021/07/07 03:40:50;;;;;;;3.77;3.30;;;16.20;99.90;;;;;;5047167;28;20435;-67
2021/07/07 03:43:16;;;;;;;3.10;2.80;;;16.10;99.90;;;;;;5053439;28;20454;-66
2021/07/07 03:45:42;;;;;;;6.00;4.00;;;16.10;99.90;;;;;;5053534;28;20168;-67
2021/07/07 03:48:09;;;;;;;2.90;2.60;;;16.00;99.90;;;;;;5053086;28;20196;-66
2021/07/07 03:50:35;;;;;;;3.50;3.00;;;16.00;99.90;;;;;;5053494;28;20536;-66
2021/07/07 03:53:04;;;;;;;5.80;3.23;;;16.00;99.90;;;;;;5053045;28;20415;-67
2021/07/07 03:55:30;;;;;;;4.83;3.60;;;16.10;99.90;;;;;;5033705;28;20447;-66
2021/07/07 03:57:56;;;;;;;3.73;2.63;;;16.10;99.90;;;;;;5033073;28;20945;-66
2021/07/07 04:00:25;;;;;;;5.00;3.10;;;16.10;99.90;;;;;;5033408;28;20432;-66
2021/07/07 04:02:51;;;;;;;3.77;2.97;;;16.10;99.90;;;;;;5033407;28;20276;-66
2021/07/07 04:05:17;;;;;;;3.33;2.50;;;16.10;99.90;;;;;;5033520;28;20447;-67
2021/07/07 04:07:44;;;;;;;4.67;3.27;;;16.10;99.90;;;;;;5032961;28;20923;-67
2021/07/07 04:10:11;;;;;;;2.80;2.17;;;16.00;99.90;;;;;;5053102;28;20858;-66
2021/07/07 04:12:38;;;;;;;2.60;1.83;;;16.00;99.90;;;;;;5053226;28;20396;-66
2021/07/07 04:15:06;;;;;;;2.37;2.17;;;15.90;99.90;;;;;;5053220;28;20385;-65
2021/07/07 04:17:32;;;;;;;1.93;1.83;;;15.90;99.90;;;;;;5042161;28;20466;-66
2021/07/07 04:19:58;;;;;;;2.27;1.57;;;15.80;99.90;;;;;;5033370;28;20431;-66
2021/07/07 04:22:24;;;;;;;2.10;1.90;;;15.80;99.90;;;;;;5033795;28;20490;-66
2021/07/07 04:24:50;;;;;;;1.57;1.47;;;15.70;99.90;;;;;;5033215;28;20559;-65
2021/07/07 04:27:15;;;;;;;1.97;1.77;;;15.70;99.90;;;;;;5033164;28;20166;-65
2021/07/07 04:29:41;;;;;;;1.93;1.70;;;15.70;99.90;;;;;;5033296;28;20935;-66
2021/07/07 04:32:07;;;;;;;1.70;1.60;;;15.70;99.90;;;;;;5033337;28;20694;-67
2021/07/07 04:34:33;;;;;;;2.00;1.80;;;15.60;99.90;;;;;;5033147;28;20173;-66
2021/07/07 04:36:59;;;;;;;1.87;1.77;;;15.60;99.90;;;;;;5033173;28;20478;-67
2021/07/07 04:39:25;;;;;;;3.07;2.03;;;15.60;99.90;;;;;;5037887;28;20292;-67
2021/07/07 04:41:50;;;;;;;6.40;2.33;;;15.60;99.90;;;;;;5052919;28;20601;-67
2021/07/07 04:44:16;;;;;;;2.50;1.87;;;15.60;99.90;;;;;;5051704;28;20674;-67
2021/07/07 04:46:42;;;;;;;2.20;2.07;;;15.70;99.90;;;;;;5053086;28;20193;-67
2021/07/07 04:49:07;;;;;;;2.07;1.97;;;15.70;99.90;;;;;;5053792;28;20198;-68
2021/07/07 04:51:34;;;;;;;3.20;2.77;;;15.70;99.90;;;;;;5056622;28;20164;-67
2021/07/07 04:54:00;;;;;;;2.47;2.13;;;15.80;99.90;;;;;;5056842;28;20180;-68
2021/07/07 04:56:25;;;;;;;3.70;2.10;;;15.80;99.90;;;;;;5056492;28;20400;-68
2021/07/07 04:58:51;;;;;;;3.40;2.40;;;15.80;99.90;;;;;;5056292;28;20207;-68
2021/07/07 05:01:17;;;;;;;1.87;1.70;;;15.90;99.90;;;;;;5056731;28;20630;-68
2021/07/07 05:03:42;;;;;;;2.00;1.90;;;15.90;99.90;;;;;;5036786;28;20237;-68
2021/07/07 05:06:08;;;;;;;3.67;2.17;;;16.10;99.90;;;;;;5036635;28;20173;-68
2021/07/07 05:08:34;;;;;;;2.40;2.30;;;16.10;99.90;;;;;;5035968;28;20536;-68
2021/07/07 05:11:00;;;;;;;4.20;2.00;;;16.00;99.90;;;;;;5035218;28;20409;-68
2021/07/07 05:13:26;;;;;;;2.60;2.40;;;16.10;99.90;;;;;;5036375;28;20178;-68
2021/07/07 05:15:52;;;;;;;2.40;2.20;;;16.10;99.90;;;;;;5036390;28;20408;-67
2021/07/07 05:18:19;;;;;;;2.57;2.37;;;16.10;99.90;;;;;;5053782;28;20227;-67
2021/07/07 05:20:45;;;;;;;2.00;1.83;;;16.20;99.90;;;;;;5056233;28;20423;-68
2021/07/07 05:23:11;;;;;;;3.10;2.80;;;16.20;99.90;;;;;;5055980;28;20464;-68
2021/07/07 05:25:39;;;;;;;3.57;3.23;;;16.20;99.90;;;;;;5056361;28;20412;-68
2021/07/07 05:28:05;;;;;;;3.07;2.30;;;16.30;99.90;;;;;;5055691;28;20175;-66
2021/07/07 05:30:32;;;;;;;2.73;2.43;;;16.30;99.90;;;;;;5050941;28;20539;-68
2021/07/07 05:32:59;;;;;;;2.77;2.50;;;16.20;99.90;;;;;;5036126;28;20832;-67
2021/07/07 05:35:25;;;;;;;1.83;1.70;;;16.20;99.90;;;;;;5036065;28;20396;-67
2021/07/07 05:37:51;;;;;;;1.67;1.57;;;16.20;99.90;;;;;;5035457;28;20887;-67
2021/07/07 05:40:18;;;;;;;2.50;2.30;;;16.20;99.90;;;;;;5035838;28;20981;-66
2021/07/07 05:42:49;;;;;;;3.93;1.83;;;16.20;99.90;;;;;;5035959;28;20254;-66
2021/07/07 05:45:15;;;;;;;4.10;3.20;;;16.30;99.90;;;;;;5036071;28;20428;-66
2021/07/07 05:47:40;;;;;;;4.67;2.43;;;16.40;99.90;;;;;;5035285;28;20931;-66
2021/07/07 05:50:06;;;;;;;1.70;1.60;;;16.40;99.90;;;;;;5036053;28;20204;-66
2021/07/07 05:52:32;;;;;;;2.60;2.40;;;16.40;99.90;;;;;;5035861;28;20184;-67
2021/07/07 05:54:58;;;;;;;1.87;1.60;;;16.40;99.90;;;;;;5035359;28;20404;-67
2021/07/07 05:57:25;;;;;;;2.27;2.07;;;16.40;99.90;;;;;;5049593;28;20196;-67
2021/07/07 05:59:52;;;;;;;3.13;2.87;;;16.40;99.90;;;;;;5060635;28;20190;-67
2021/07/07 06:02:18;;;;;;;3.93;3.17;;;16.40;99.90;;;;;;5050439;28;20474;-68
2021/07/07 06:04:44;;;;;;;2.47;2.27;;;16.40;99.90;;;;;;5039392;28;20456;-68
2021/07/07 06:07:09;;;;;;;2.90;2.03;;;16.40;99.90;;;;;;5034835;28;20438;-68
2021/07/07 06:09:35;;;;;;;2.53;2.33;;;16.40;99.90;;;;;;5035266;28;20861;-68
2021/07/07 06:12:00;;;;;;;1.60;1.50;;;16.40;99.90;;;;;;5048206;28;20185;-68
2021/07/07 06:14:26;;;;;;;4.73;1.80;;;16.50;99.90;;;;;;5055262;28;20173;-68
2021/07/07 06:16:52;;;;;;;2.20;2.00;;;16.50;99.90;;;;;;5055288;28;20681;-68
2021/07/07 06:19:18;;;;;;;2.00;1.90;;;16.50;99.90;;;;;;5054597;28;20201;-68
2021/07/07 06:21:45;;;;;;;2.10;1.77;;;16.60;99.90;;;;;;5052914;28;20551;-68
2021/07/07 06:24:11;;;;;;;3.13;1.80;;;16.60;99.90;;;;;;5044204;28;20456;-68
2021/07/07 06:26:37;;;;;;;2.80;1.87;;;16.60;99.90;;;;;;5038783;28;20420;-66
2021/07/07 06:29:06;;;;;;;4.93;4.43;;;16.70;99.90;;;;;;5034607;28;20909;-66
2021/07/07 06:31:38;;;;;;;2.30;2.10;;;16.70;99.90;;;;;;5048804;28;20184;-67
2021/07/07 06:34:03;;;;;;;2.70;2.10;;;16.60;99.90;;;;;;5054913;28;20439;-67
2021/07/07 06:36:29;;;;;;;1.90;1.80;;;16.70;99.90;;;;;;5054660;28;20420;-69
2021/07/07 06:38:54;;;;;;;2.13;1.93;;;16.70;99.90;;;;;;5054106;28;20198;-68
2021/07/07 06:41:21;;;;;;;3.93;1.60;;;16.80;99.90;;;;;;5054641;28;20188;-69
2021/07/07 06:43:47;;;;;;;3.33;2.03;;;16.90;99.90;;;;;;5054435;28;20293;-68
2021/07/07 06:46:12;;;;;;;2.40;2.20;;;16.90;99.90;;;;;;5054408;28;20908;-69
2021/07/07 06:48:38;;;;;;;3.20;2.90;;;17.10;99.90;;;;;;5054172;28;20177;-70
2021/07/07 06:51:03;;;;;;;2.40;2.20;;;17.20;99.90;;;;;;5054551;28;20178;-67
2021/07/07 06:53:29;;;;;;;1.80;1.70;;;17.30;99.90;;;;;;5054181;28;20181;-68
2021/07/07 06:55:55;;;;;;;2.33;2.23;;;17.40;99.90;;;;;;5054256;28;20180;-68
2021/07/07 06:58:20;;;;;;;2.53;2.33;;;17.50;99.90;;;;;;5053723;28;20576;-68
2021/07/07 07:00:46;;;;;;;1.50;1.40;;;17.50;99.90;;;;;;5054152;28;20267;-70
2021/07/07 07:03:12;;;;;;;1.17;1.17;;;17.40;99.90;;;;;;5054044;28;20211;-69
2021/07/07 07:05:38;;;;;;;8.53;2.87;;;17.40;99.90;;;;;;5054525;28;20179;-68
2021/07/07 07:08:04;;;;;;;2.67;2.13;;;17.40;99.90;;;;;;5053740;28;20172;-69
2021/07/07 07:10:31;;;;;;;3.50;2.60;;;17.40;99.90;;;;;;5053342;28;20274;-69
2021/07/07 07:13:00;;;;;;;1.40;1.40;;;17.40;99.90;;;;;;5052940;28;20417;-70
2021/07/07 07:15:26;;;;;;;2.20;1.90;;;17.40;99.90;;;;;;5054023;28;20605;-69
2021/07/07 07:17:51;;;;;;;1.60;1.50;;;17.40;99.90;;;;;;5053752;28;20472;-67
2021/07/07 07:20:18;;;;;;;1.80;1.70;;;17.40;99.90;;;;;;5053887;28;20282;-65
2021/07/07 07:22:45;;;;;;;1.77;1.60;;;17.40;99.90;;;;;;5054038;28;20174;-64
2021/07/07 07:25:11;;;;;;;2.10;1.90;;;17.30;99.90;;;;;;5054084;28;20456;-67
2021/07/07 07:27:38;;;;;;;2.20;2.00;;;17.30;99.90;;;;;;5053859;28;20412;-67
2021/07/07 07:30:06;;;;;;;1.80;1.70;;;17.20;99.90;;;;;;5052420;28;20448;-70
2021/07/07 07:32:31;;;;;;;1.10;1.10;;;17.30;99.90;;;;;;5053838;28;20428;-70
2021/07/07 07:34:57;;;;;;;1.30;1.20;;;17.30;99.90;;;;;;5053780;28;20887;-71
2021/07/07 07:37:36;;;;;;;1.10;1.10;;;17.20;99.90;;;;;;5053624;28;20166;-70
2021/07/07 07:40:09;;;;;;;1.87;1.37;;;17.20;99.90;;;;;;5053577;28;20186;-70
2021/07/07 07:42:35;;;;;;;1.70;1.60;;;17.20;99.90;;;;;;5053537;28;20411;-67
2021/07/07 07:45:01;;;;;;;1.20;1.20;;;17.20;99.90;;;;;;5053592;28;20582;-68
2021/07/07 07:47:26;;;;;;;1.73;1.63;;;17.20;99.90;;;;;;5053152;28;20413;-68
2021/07/07 07:49:52;;;;;;;3.40;1.40;;;17.30;99.90;;;;;;5053548;28;20183;-67
2021/07/07 07:52:18;;;;;;;1.63;1.50;;;17.30;99.90;;;;;;5053321;28;20262;-68
2021/07/07 07:54:44;;;;;;;5.87;4.10;;;17.40;99.90;;;;;;5053548;28;20263;-67
2021/07/07 07:57:10;;;;;;;5.27;1.87;;;17.50;99.90;;;;;;5044280;28;20587;-67
2021/07/07 07:59:35;;;;;;;2.67;2.47;;;17.60;99.90;;;;;;5042764;28;20265;-66
2021/07/07 08:02:01;;;;;;;1.43;1.37;;;17.60;99.90;;;;;;5040920;28;20250;-67
2021/07/07 08:04:27;;;;;;;2.40;2.03;;;17.50;99.90;;;;;;5042308;28;20216;-67
2021/07/07 08:06:52;;;;;;;1.50;1.40;;;17.50;99.90;;;;;;5042184;28;20171;-66
2021/07/07 08:09:18;;;;;;;1.43;1.43;;;17.40;99.90;;;;;;5040450;28;20189;-66
2021/07/07 08:11:44;;;;;;;1.50;1.40;;;17.40;99.90;;;;;;5033232;28;20174;-68
2021/07/07 08:14:10;;;;;;;2.43;1.80;;;17.30;99.90;;;;;;5033032;28;20261;-67
2021/07/07 08:16:35;;;;;;;3.20;2.17;;;17.40;99.90;;;;;;5033312;28;20200;-68
2021/07/07 08:19:01;;;;;;;2.40;1.67;;;17.30;99.90;;;;;;5032604;28;20429;-67
2021/07/07 08:21:27;;;;;;;3.00;2.03;;;17.30;99.90;;;;;;5030887;28;20629;-67
2021/07/07 08:23:52;;;;;;;5.40;2.23;;;17.30;99.90;;;;;;5036437;28;20194;-67
2021/07/07 08:26:18;;;;;;;4.13;2.37;;;17.30;99.90;;;;;;5036842;28;20174;-68
2021/07/07 08:28:44;;;;;;;1.50;1.40;;;17.40;99.90;;;;;;5036422;28;20689;-68
2021/07/07 08:31:09;;;;;;;1.50;1.10;;;17.40;99.90;;;;;;5036866;28;20181;-68
2021/07/07 08:33:35;;;;;;;1.70;1.60;;;17.50;99.90;;;;;;5036760;28;20182;-68
2021/07/07 08:36:01;;;;;;;1.90;1.80;;;17.50;99.90;;;;;;5037122;28;20179;-68
2021/07/07 08:38:27;;;;;;;0.97;0.97;;;17.50;99.90;;;;;;5036396;28;20169;-68
2021/07/07 08:40:52;;;;;;;1.27;1.27;;;17.50;99.90;;;;;;5035620;28;20175;-68
2021/07/07 08:43:18;;;;;;;1.20;1.10;;;17.50;99.90;;;;;;5035698;28;20659;-68
2021/07/07 08:45:44;;;;;;;1.60;1.50;;;17.50;99.90;;;;;;5036675;28;20167;-67
2021/07/07 08:48:10;;;;;;;2.30;1.40;;;17.60;99.90;;;;;;5036586;28;20174;-68
2021/07/07 08:50:37;;;;;;;1.50;1.40;;;17.50;99.90;;;;;;5036709;28;20951;-68
2021/07/07 08:53:04;;;;;;;2.80;2.50;;;17.60;99.90;;;;;;5036974;28;20624;-67
2021/07/07 08:55:32;;;;;;;1.60;1.50;;;17.70;99.90;;;;;;5037063;28;20789;-67
2021/07/07 08:57:58;;;;;;;1.07;1.07;;;17.80;99.90;;;;;;5036101;28;20955;-68
2021/07/07 09:00:36;;;;;;;1.40;1.30;;;17.90;99.90;;;;;;5036634;28;20431;-68
2021/07/07 09:03:01;;;;;;;1.10;1.10;;;18.00;99.90;;;;;;5036691;28;20816;-69
2021/07/07 09:05:27;;;;;;;1.17;1.17;;;18.00;99.90;;;;;;5036447;28;20491;-68
2021/07/07 09:07:53;;;;;;;1.37;1.27;;;18.00;99.90;;;;;;5036497;28;20172;-68
2021/07/07 09:10:30;;;;;;;1.20;1.20;;;17.90;99.90;;;;;;5036620;28;20276;-67
2021/07/07 09:13:07;;;;;;;1.30;1.20;;;18.10;99.90;;;;;;5036413;28;20415;-69
2021/07/07 09:15:33;;;;;;;1.37;1.27;;;18.30;99.90;;;;;;5036716;28;20399;-68
2021/07/07 09:17:58;;;;;;;1.80;1.70;;;18.50;99.90;;;;;;5036265;28;20754;-69
2021/07/07 09:20:24;;;;;;;1.27;1.27;;;18.80;99.90;;;;;;5036357;28;20436;-68
2021/07/07 09:23:11;;;;;;;1.20;1.10;;;19.10;99.90;;;;;;5036287;28;20237;-69
2021/07/07 09:26:04;;;;;;;0.90;0.90;;;19.20;99.90;;;;;;5036394;28;20595;-69
2021/07/07 09:28:36;;;;;;;0.93;0.80;;;19.50;99.90;;;;;;5035491;28;20634;-69
2021/07/07 09:31:38;;;;;;;1.00;1.00;;;20.00;99.90;;;;;;5036323;28;20412;-69
2021/07/07 09:34:12;;;;;;;1.40;1.30;;;20.10;99.90;;;;;;5035263;28;20402;-68
2021/07/07 09:36:39;;;;;;;1.10;1.00;;;20.50;99.90;;;;;;5036127;28;20434;-69
2021/07/07 09:39:05;;;;;;;1.33;1.10;;;20.80;99.90;;;;;;5034179;28;20440;-69
2021/07/07 09:41:32;;;;;;;1.00;0.97;;;21.00;99.90;;;;;;5035546;28;20964;-67
2021/07/07 09:43:57;;;;;;;0.80;0.80;;;21.20;99.90;;;;;;5041487;28;20235;-68
2021/07/07 09:46:23;;;;;;;1.60;1.00;;;21.40;99.90;;;;;;5035928;28;20408;-68
2021/07/07 09:48:51;;;;;;;1.23;1.13;;;21.30;99.90;;;;;;5034623;28;20642;-68
2021/07/07 09:51:17;;;;;;;1.10;1.10;;;21.20;99.90;;;;;;5035307;28;20172;-70
2021/07/07 09:53:43;;;;;;;1.00;1.00;;;21.00;99.90;;;;;;5035714;28;20459;-69
2021/07/07 09:56:09;;;;;;;1.53;1.30;;;20.80;99.90;;;;;;5035855;28;20927;-71
2021/07/07 09:58:35;;;;;;;1.10;1.00;;;20.60;99.90;;;;;;5035081;28;20420;-69
2021/07/07 10:01:01;;;;;;;1.10;0.90;;;20.40;99.90;;;;;;5035740;28;20223;-71
2021/07/07 10:03:26;;;;;;;1.10;1.00;;;20.40;99.90;;;;;;5035548;28;20206;-70
2021/07/07 10:05:52;;;;;;;0.90;0.90;;;20.40;99.90;;;;;;5035359;28;20162;-70
2021/07/07 10:08:21;;;;;;;1.60;1.20;;;20.30;99.90;;;;;;5035098;28;20173;-70
2021/07/07 10:10:47;;;;;;;1.00;1.00;;;20.40;99.90;;;;;;5035279;28;20447;-71
2021/07/07 10:13:15;;;;;;;0.97;0.87;;;20.40;99.90;;;;;;5035329;28;20383;-71
2021/07/07 10:15:41;;;;;;;1.40;1.30;;;20.40;99.90;;;;;;5035266;28;20463;-70
2021/07/07 10:18:07;;;;;;;0.90;0.90;;;20.30;99.90;;;;;;5033529;28;20939;-70
2021/07/07 10:20:34;;;;;;;4.53;0.70;;;20.40;99.90;;;;;;5035251;28;20425;-72
2021/07/07 10:23:02;;;;;;;1.80;0.80;;;20.40;99.90;;;;;;5034831;28;20971;-69
2021/07/07 10:25:30;;;;;;;0.87;0.87;;;20.50;99.90;;;;;;5035464;28;20380;-70
2021/07/07 10:28:00;;;;;;;1.00;1.00;;;20.60;99.90;;;;;;5034784;28;20452;-69
2021/07/07 10:30:50;;;;;;;3.00;1.00;;;20.70;99.90;;;;;;5034868;28;20810;-71
2021/07/07 10:33:17;;;;;;;1.73;1.30;;;20.90;99.90;;;;;;5034910;28;20416;-71
2021/07/07 10:35:43;;;;;;;1.43;1.30;;;21.10;99.90;;;;;;5035043;28;20455;-72
2021/07/07 10:38:09;;;;;;;1.30;1.20;;;21.30;99.90;;;;;;5034415;28;20415;-70
2021/07/07 10:40:51;;;;;;;1.20;1.10;;;21.30;99.90;;;;;;5034573;28;20541;-67
2021/07/07 10:43:25;;;;;;;6.47;1.10;;;21.50;99.90;;;;;;5034451;28;20429;-70
2021/07/07 10:45:51;;;;;;;1.37;1.10;;;21.50;99.90;;;;;;5034575;28;20390;-70
2021/07/07 10:48:46;;;;;;;2.00;0.80;;;21.50;99.90;;;;;;5034363;28;20475;-69
2021/07/07 10:51:11;;;;;;;1.30;1.20;;;21.90;99.90;;;;;;5033307;28;20436;-69
2021/07/07 10:53:37;;;;;;;1.13;1.07;;;22.30;99.90;;;;;;5034451;28;20404;-68
2021/07/07 10:56:05;;;;;;;0.83;0.83;;;22.40;99.90;;;;;;5034076;28;20170;-68
2021/07/07 10:58:36;;;;;;;2.47;1.50;;;22.60;99.90;;;;;;5038269;28;20186;-67
2021/07/07 11:01:04;;;;;;;2.03;1.50;;;22.80;99.90;;;;;;5043586;28;20531;-69
2021/07/07 11:03:37;;;;;;;1.47;1.23;;;22.60;99.90;;;;;;5041989;28;20452;-67
2021/07/07 11:06:23;;;;;;;1.67;1.23;;;22.60;99.90;;;;;;5042365;28;20408;-68
2021/07/07 11:08:50;;;;;;;1.67;1.57;;;22.60;99.90;;;;;;5043396;28;20803;-68
2021/07/07 11:11:23;;;;;;;2.10;1.27;;;22.70;99.90;;;;;;5042388;28;20408;-69
2021/07/07 11:13:50;;;;;;;1.20;1.10;;;22.80;99.90;;;;;;5043409;28;20756;-70
2021/07/07 11:16:20;;;;;;;1.87;1.77;;;22.90;99.90;;;;;;5041376;28;20387;-69
2021/07/07 11:18:47;;;;;;;1.13;1.10;;;22.90;99.90;;;;;;5041248;28;20432;-68
2021/07/07 11:21:13;;;;;;;1.60;1.20;;;23.10;99.90;;;;;;5041951;28;20919;-69
2021/07/07 11:23:39;;;;;;;1.17;1.10;;;23.20;99.90;;;;;;5040643;28;20464;-69
2021/07/07 11:26:07;;;;;;;5.37;4.60;;;23.10;99.90;;;;;;5041326;28;20409;-68
2021/07/07 11:28:32;;;;;;;1.50;0.83;;;23.00;99.90;;;;;;5035433;28;20542;-69
2021/07/07 11:30:59;;;;;;;1.03;0.93;;;23.10;99.90;;;;;;5043315;28;20507;-68
2021/07/07 11:33:25;;;;;;;3.30;2.30;;;23.00;99.90;;;;;;5041566;28;20243;-68
2021/07/07 11:35:51;;;;;;;4.40;3.70;;;22.90;99.90;;;;;;5040762;28;20409;-69
2021/07/07 11:38:30;;;;;;;3.67;3.20;;;22.90;99.90;;;;;;5043163;28;20392;-67
2021/07/07 11:40:57;;;;;;;1.70;1.60;;;22.80;99.90;;;;;;5043163;28;20386;-67
2021/07/07 11:43:32;;;;;;;1.33;1.20;;;22.90;99.90;;;;;;5041140;28;20449;-68
2021/07/07 11:46:00;;;;;;;1.20;1.10;;;22.80;99.90;;;;;;5040865;28;20916;-69
2021/07/07 11:51:03;;;;;;;1.90;1.30;;;23.00;99.90;;;;;;5042998;28;20407;-69
2021/07/07 11:53:42;;;;;;;1.10;1.10;;;23.00;99.90;;;;;;5042036;28;20424;-68
2021/07/07 11:56:13;;;;;;;0.87;0.80;;;23.00;99.90;;;;;;5038477;28;20399;-74
2021/07/07 11:58:41;;;;;;;1.00;1.00;;;22.90;99.90;;;;;;5032748;28;20407;-74
2021/07/07 12:01:25;;;;;;;2.00;1.43;;;23.20;99.90;;;;;;5033404;28;20815;-74
2021/07/07 12:04:06;;;;;;;3.10;1.00;;;23.40;99.90;;;;;;5033254;28;20461;-74
2021/07/07 12:06:44;;;;;;;1.27;1.20;;;23.50;99.90;;;;;;5032144;28;20416;-74
2021/07/07 12:09:18;;;;;;;1.50;1.40;;;23.60;99.90;;;;;;5038956;28;20468;-73
2021/07/07 12:11:58;;;;;;;1.67;1.57;;;23.60;99.90;;;;;;5051941;28;20394;-75
2021/07/07 12:14:26;;;;;;;1.20;1.10;;;23.80;99.90;;;;;;5053237;28;20419;-74
2021/07/07 12:16:56;;;;;;;1.70;1.60;;;24.00;99.90;;;;;;5053285;28;20391;-74
2021/07/07 12:19:22;;;;;;;2.60;1.40;;;24.20;99.90;;;;;;5033517;28;20420;-74
2021/07/07 12:21:55;;;;;;;5.90;1.70;;;24.40;99.90;;;;;;5031029;28;20419;-75
2021/07/07 12:24:22;;;;;;;2.27;1.60;;;24.50;99.90;;;;;;5032390;28;20590;-75
2021/07/07 12:26:57;;;;;;;1.40;1.30;;;24.40;99.90;;;;;;5032650;28;20773;-74
2021/07/07 12:29:26;;;;;;;0.83;0.83;;;24.30;99.90;;;;;;5032410;28;20399;-73
2021/07/07 12:31:57;;;;;;;1.60;1.00;;;24.30;99.90;;;;;;5032756;28;20763;-74
2021/07/07 12:34:35;;;;;;;2.00;1.30;;;24.40;99.90;;;;;;5032993;28;20830;-74
2021/07/07 12:37:04;;;;;;;1.33;1.23;;;24.40;99.90;;;;;;5031903;28;20416;-74
2021/07/07 12:39:33;;;;;;;2.73;1.40;;;24.50;99.90;;;;;;5032696;28;20415;-73
2021/07/07 12:42:13;;;;;;;4.97;1.33;;;24.50;99.90;;;;;;5032977;28;20383;-73
2021/07/07 12:44:41;;;;;;;1.13;1.13;;;24.60;99.90;;;;;;5033020;28;20459;-73
2021/07/07 12:47:09;;;;;;;1.90;1.80;;;24.60;99.90;;;;;;5032682;28;20412;-71
2021/07/07 12:49:51;;;;;;;3.50;2.87;;;24.80;99.90;;;;;;5032948;28;20407;-73
2021/07/07 12:52:34;;;;;;;2.73;2.13;;;24.80;99.90;;;;;;5033110;28;20428;-75